sensor_id;sensor_type;location;lat;lon;timestamp;P1;durP1;ratioP1;P2;durP2;ratioP2
23567;SDS011;11962;50.838;4.430;2023-04-08T00:01:24;18.92;;;6.35;;
23567;SDS011;11962;50.838;4.430;2023-04-08T00:03:50;16.52;;;6.80;;
23567;SDS011;11962;50.838;4.430;2023-04-08T00:06:16;21.85;;;7.30;;
23567;SDS011;11962;50.838;4.430;2023-04-08T00:08:41;15.52;;;6.80;;
23567;SDS011;11962;50.838;4.430;2023-04-08T00:11:07;20.73;;;6.68;;
23567;SDS011;11962;50.838;4.430;2023-04-08T00:13:33;18.83;;;7.10;;
23567;SDS011;11962;50.838;4.430;2023-04-08T00:15:59;21.38;;;7.10;;
23567;SDS011;11962;50.838;4.430;2023-04-08T00:18:25;19.13;;;6.85;;
23567;SDS011;11962;50.838;4.430;2023-04-08T00:20:51;15.50;;;6.63;;
23567;SDS011;11962;50.838;4.430;2023-04-08T00:23:17;19.80;;;7.43;;
23567;SDS011;11962;50.838;4.430;2023-04-08T00:25:45;23.05;;;7.07;;
23567;SDS011;11962;50.838;4.430;2023-04-08T00:28:11;15.85;;;7.07;;
23567;SDS011;11962;50.838;4.430;2023-04-08T00:30:36;14.10;;;6.95;;
23567;SDS011;11962;50.838;4.430;2023-04-08T00:33:02;21.25;;;6.50;;
23567;SDS011;11962;50.838;4.430;2023-04-08T00:35:28;19.70;;;6.75;;
23567;SDS011;11962;50.838;4.430;2023-04-08T00:37:54;23.40;;;6.78;;
23567;SDS011;11962;50.838;4.430;2023-04-08T00:40:19;17.25;;;7.05;;
23567;SDS011;11962;50.838;4.430;2023-04-08T00:42:45;24.23;;;7.80;;
23567;SDS011;11962;50.838;4.430;2023-04-08T00:45:11;20.52;;;7.07;;
23567;SDS011;11962;50.838;4.430;2023-04-08T00:47:37;17.25;;;7.30;;
23567;SDS011;11962;50.838;4.430;2023-04-08T00:50:03;22.65;;;7.00;;
23567;SDS011;11962;50.838;4.430;2023-04-08T00:52:33;16.42;;;6.88;;
23567;SDS011;11962;50.838;4.430;2023-04-08T00:54:59;22.85;;;7.00;;
23567;SDS011;11962;50.838;4.430;2023-04-08T00:57:25;22.08;;;7.40;;
23567;SDS011;11962;50.838;4.430;2023-04-08T00:59:50;19.63;;;6.82;;
23567;SDS011;11962;50.838;4.430;2023-04-08T01:02:28;14.25;;;6.65;;
23567;SDS011;11962;50.838;4.430;2023-04-08T01:05:34;22.27;;;6.90;;
23567;SDS011;11962;50.838;4.430;2023-04-08T01:08:02;19.65;;;7.18;;
23567;SDS011;11962;50.838;4.430;2023-04-08T01:10:32;21.88;;;7.78;;
23567;SDS011;11962;50.838;4.430;2023-04-08T01:13:01;23.50;;;7.35;;
23567;SDS011;11962;50.838;4.430;2023-04-08T01:15:29;20.35;;;6.72;;
23567;SDS011;11962;50.838;4.430;2023-04-08T01:17:57;19.50;;;7.35;;
23567;SDS011;11962;50.838;4.430;2023-04-08T01:20:25;19.33;;;7.50;;
23567;SDS011;11962;50.838;4.430;2023-04-08T01:25:51;20.80;;;6.97;;
23567;SDS011;11962;50.838;4.430;2023-04-08T01:28:21;22.83;;;7.07;;
23567;SDS011;11962;50.838;4.430;2023-04-08T01:30:51;20.98;;;7.65;;
23567;SDS011;11962;50.838;4.430;2023-04-08T01:33:18;17.85;;;7.15;;
23567;SDS011;11962;50.838;4.430;2023-04-08T01:35:46;24.52;;;7.65;;
23567;SDS011;11962;50.838;4.430;2023-04-08T01:38:15;23.95;;;7.85;;
23567;SDS011;11962;50.838;4.430;2023-04-08T01:40:43;22.30;;;7.45;;
23567;SDS011;11962;50.838;4.430;2023-04-08T01:43:15;25.50;;;7.38;;
23567;SDS011;11962;50.838;4.430;2023-04-08T01:45:43;23.85;;;8.10;;
23567;SDS011;11962;50.838;4.430;2023-04-08T01:48:13;18.90;;;7.53;;
23567;SDS011;11962;50.838;4.430;2023-04-08T01:50:40;24.35;;;8.77;;
23567;SDS011;11962;50.838;4.430;2023-04-08T01:53:07;24.25;;;8.98;;
23567;SDS011;11962;50.838;4.430;2023-04-08T01:55:34;27.67;;;8.77;;
23567;SDS011;11962;50.838;4.430;2023-04-08T01:58:02;22.10;;;7.47;;
23567;SDS011;11962;50.838;4.430;2023-04-08T02:00:31;22.27;;;7.93;;
23567;SDS011;11962;50.838;4.430;2023-04-08T02:02:59;24.98;;;8.30;;
23567;SDS011;11962;50.838;4.430;2023-04-08T02:05:28;21.10;;;8.35;;
23567;SDS011;11962;50.838;4.430;2023-04-08T02:07:54;15.80;;;7.25;;
23567;SDS011;11962;50.838;4.430;2023-04-08T02:10:20;17.88;;;7.40;;
23567;SDS011;11962;50.838;4.430;2023-04-08T02:12:45;29.92;;;7.85;;
23567;SDS011;11962;50.838;4.430;2023-04-08T02:15:12;19.27;;;8.23;;
23567;SDS011;11962;50.838;4.430;2023-04-08T02:17:45;18.15;;;7.80;;
23567;SDS011;11962;50.838;4.430;2023-04-08T02:20:30;27.55;;;8.93;;
23567;SDS011;11962;50.838;4.430;2023-04-08T02:23:04;19.58;;;8.13;;
23567;SDS011;11962;50.838;4.430;2023-04-08T02:28:03;19.48;;;8.55;;
23567;SDS011;11962;50.838;4.430;2023-04-08T02:30:34;22.83;;;9.80;;
23567;SDS011;11962;50.838;4.430;2023-04-08T02:33:04;17.45;;;8.65;;
23567;SDS011;11962;50.838;4.430;2023-04-08T02:35:30;15.35;;;7.85;;
23567;SDS011;11962;50.838;4.430;2023-04-08T02:37:57;20.38;;;9.15;;
23567;SDS011;11962;50.838;4.430;2023-04-08T02:40:26;17.90;;;9.23;;
23567;SDS011;11962;50.838;4.430;2023-04-08T02:42:56;19.42;;;8.70;;
23567;SDS011;11962;50.838;4.430;2023-04-08T02:45:33;20.77;;;9.02;;
23567;SDS011;11962;50.838;4.430;2023-04-08T02:48:06;20.35;;;9.43;;
23567;SDS011;11962;50.838;4.430;2023-04-08T02:50:32;21.70;;;9.95;;
23567;SDS011;11962;50.838;4.430;2023-04-08T02:52:57;22.90;;;9.35;;
23567;SDS011;11962;50.838;4.430;2023-04-08T02:55:23;19.60;;;8.98;;
23567;SDS011;11962;50.838;4.430;2023-04-08T02:57:49;24.08;;;9.93;;
23567;SDS011;11962;50.838;4.430;2023-04-08T03:00:15;19.00;;;9.00;;
23567;SDS011;11962;50.838;4.430;2023-04-08T03:02:41;25.42;;;10.55;;
23567;SDS011;11962;50.838;4.430;2023-04-08T03:05:07;25.40;;;10.82;;
23567;SDS011;11962;50.838;4.430;2023-04-08T03:07:33;20.23;;;10.15;;
23567;SDS011;11962;50.838;4.430;2023-04-08T03:10:00;24.30;;;10.82;;
23567;SDS011;11962;50.838;4.430;2023-04-08T03:12:26;21.48;;;10.63;;
23567;SDS011;11962;50.838;4.430;2023-04-08T03:14:52;18.73;;;11.00;;
23567;SDS011;11962;50.838;4.430;2023-04-08T03:17:18;25.92;;;11.48;;
23567;SDS011;11962;50.838;4.430;2023-04-08T03:19:44;21.05;;;11.25;;
23567;SDS011;11962;50.838;4.430;2023-04-08T03:22:10;25.70;;;10.90;;
23567;SDS011;11962;50.838;4.430;2023-04-08T03:24:36;21.85;;;10.65;;
23567;SDS011;11962;50.838;4.430;2023-04-08T03:27:01;21.00;;;10.48;;
23567;SDS011;11962;50.838;4.430;2023-04-08T03:29:27;23.60;;;11.73;;
23567;SDS011;11962;50.838;4.430;2023-04-08T03:31:53;25.02;;;12.30;;
23567;SDS011;11962;50.838;4.430;2023-04-08T03:34:19;29.17;;;11.75;;
23567;SDS011;11962;50.838;4.430;2023-04-08T03:36:45;27.23;;;12.43;;
23567;SDS011;11962;50.838;4.430;2023-04-08T03:39:10;22.95;;;11.50;;
23567;SDS011;11962;50.838;4.430;2023-04-08T03:41:36;22.63;;;12.23;;
23567;SDS011;11962;50.838;4.430;2023-04-08T03:44:02;23.73;;;13.10;;
23567;SDS011;11962;50.838;4.430;2023-04-08T03:46:28;23.75;;;12.88;;
23567;SDS011;11962;50.838;4.430;2023-04-08T03:48:53;26.38;;;12.75;;
23567;SDS011;11962;50.838;4.430;2023-04-08T03:51:19;24.10;;;12.95;;
23567;SDS011;11962;50.838;4.430;2023-04-08T03:53:45;27.80;;;12.85;;
23567;SDS011;11962;50.838;4.430;2023-04-08T03:56:12;29.65;;;13.32;;
23567;SDS011;11962;50.838;4.430;2023-04-08T03:58:38;24.83;;;13.25;;
23567;SDS011;11962;50.838;4.430;2023-04-08T04:01:03;29.45;;;13.50;;
23567;SDS011;11962;50.838;4.430;2023-04-08T04:03:29;22.92;;;13.85;;
23567;SDS011;11962;50.838;4.430;2023-04-08T04:05:55;26.65;;;13.23;;
23567;SDS011;11962;50.838;4.430;2023-04-08T04:08:21;32.53;;;15.35;;
23567;SDS011;11962;50.838;4.430;2023-04-08T04:10:47;34.85;;;14.73;;
23567;SDS011;11962;50.838;4.430;2023-04-08T04:13:12;32.13;;;15.20;;
23567;SDS011;11962;50.838;4.430;2023-04-08T04:15:39;32.30;;;16.10;;
23567;SDS011;11962;50.838;4.430;2023-04-08T04:18:05;38.83;;;16.00;;
23567;SDS011;11962;50.838;4.430;2023-04-08T04:20:31;25.52;;;14.73;;
23567;SDS011;11962;50.838;4.430;2023-04-08T04:22:57;31.00;;;15.68;;
23567;SDS011;11962;50.838;4.430;2023-04-08T04:25:23;30.05;;;16.02;;
23567;SDS011;11962;50.838;4.430;2023-04-08T04:27:49;30.70;;;15.80;;
23567;SDS011;11962;50.838;4.430;2023-04-08T04:30:15;28.27;;;15.15;;
23567;SDS011;11962;50.838;4.430;2023-04-08T04:32:41;36.72;;;17.50;;
23567;SDS011;11962;50.838;4.430;2023-04-08T04:35:10;36.63;;;16.80;;
23567;SDS011;11962;50.838;4.430;2023-04-08T04:37:37;33.78;;;16.15;;
23567;SDS011;11962;50.838;4.430;2023-04-08T04:40:03;38.45;;;16.73;;
23567;SDS011;11962;50.838;4.430;2023-04-08T04:42:29;27.55;;;15.65;;
23567;SDS011;11962;50.838;4.430;2023-04-08T04:44:55;31.52;;;16.23;;
23567;SDS011;11962;50.838;4.430;2023-04-08T04:47:21;33.70;;;16.38;;
23567;SDS011;11962;50.838;4.430;2023-04-08T04:49:47;42.88;;;16.85;;
23567;SDS011;11962;50.838;4.430;2023-04-08T04:52:13;36.13;;;16.35;;
23567;SDS011;11962;50.838;4.430;2023-04-08T04:54:39;36.95;;;17.77;;
23567;SDS011;11962;50.838;4.430;2023-04-08T04:57:04;35.97;;;16.25;;
23567;SDS011;11962;50.838;4.430;2023-04-08T04:59:30;35.97;;;16.48;;
23567;SDS011;11962;50.838;4.430;2023-04-08T05:01:56;36.72;;;15.25;;
23567;SDS011;11962;50.838;4.430;2023-04-08T05:04:22;35.13;;;16.25;;
23567;SDS011;11962;50.838;4.430;2023-04-08T05:06:48;41.13;;;16.40;;
23567;SDS011;11962;50.838;4.430;2023-04-08T05:09:14;35.55;;;17.25;;
23567;SDS011;11962;50.838;4.430;2023-04-08T05:11:40;37.20;;;16.20;;
23567;SDS011;11962;50.838;4.430;2023-04-08T05:14:06;37.47;;;17.17;;
23567;SDS011;11962;50.838;4.430;2023-04-08T05:16:32;34.35;;;15.35;;
23567;SDS011;11962;50.838;4.430;2023-04-08T05:18:58;34.47;;;16.50;;
23567;SDS011;11962;50.838;4.430;2023-04-08T05:21:24;34.90;;;16.27;;
23567;SDS011;11962;50.838;4.430;2023-04-08T05:23:51;33.47;;;15.95;;
23567;SDS011;11962;50.838;4.430;2023-04-08T05:26:21;31.83;;;16.33;;
23567;SDS011;11962;50.838;4.430;2023-04-08T05:31:15;33.38;;;15.48;;
23567;SDS011;11962;50.838;4.430;2023-04-08T05:33:42;36.78;;;15.63;;
23567;SDS011;11962;50.838;4.430;2023-04-08T05:36:09;34.83;;;16.80;;
23567;SDS011;11962;50.838;4.430;2023-04-08T05:38:35;32.25;;;16.42;;
23567;SDS011;11962;50.838;4.430;2023-04-08T05:41:01;42.15;;;17.00;;
23567;SDS011;11962;50.838;4.430;2023-04-08T05:43:27;40.88;;;16.90;;
23567;SDS011;11962;50.838;4.430;2023-04-08T05:45:52;33.78;;;15.75;;
23567;SDS011;11962;50.838;4.430;2023-04-08T05:48:18;37.45;;;16.45;;
23567;SDS011;11962;50.838;4.430;2023-04-08T05:50:44;40.88;;;17.20;;
23567;SDS011;11962;50.838;4.430;2023-04-08T05:53:12;33.42;;;17.25;;
23567;SDS011;11962;50.838;4.430;2023-04-08T05:55:38;31.77;;;15.90;;
23567;SDS011;11962;50.838;4.430;2023-04-08T05:58:05;40.55;;;18.23;;
23567;SDS011;11962;50.838;4.430;2023-04-08T06:00:31;38.20;;;16.55;;
23567;SDS011;11962;50.838;4.430;2023-04-08T06:02:56;42.35;;;16.88;;
23567;SDS011;11962;50.838;4.430;2023-04-08T06:05:22;44.60;;;17.42;;
23567;SDS011;11962;50.838;4.430;2023-04-08T06:07:48;38.50;;;16.23;;
23567;SDS011;11962;50.838;4.430;2023-04-08T06:10:14;39.95;;;17.00;;
23567;SDS011;11962;50.838;4.430;2023-04-08T06:12:40;44.55;;;16.95;;
23567;SDS011;11962;50.838;4.430;2023-04-08T06:15:06;32.83;;;16.13;;
23567;SDS011;11962;50.838;4.430;2023-04-08T06:17:34;36.35;;;16.70;;
23567;SDS011;11962;50.838;4.430;2023-04-08T06:20:01;35.65;;;16.08;;
23567;SDS011;11962;50.838;4.430;2023-04-08T06:22:27;32.45;;;16.70;;
23567;SDS011;11962;50.838;4.430;2023-04-08T06:24:53;31.50;;;16.13;;
23567;SDS011;11962;50.838;4.430;2023-04-08T06:27:19;34.92;;;16.88;;
23567;SDS011;11962;50.838;4.430;2023-04-08T06:29:45;33.33;;;15.90;;
23567;SDS011;11962;50.838;4.430;2023-04-08T06:32:11;32.03;;;17.02;;
23567;SDS011;11962;50.838;4.430;2023-04-08T06:34:37;36.90;;;16.05;;
23567;SDS011;11962;50.838;4.430;2023-04-08T06:37:03;39.80;;;16.70;;
23567;SDS011;11962;50.838;4.430;2023-04-08T06:39:30;34.97;;;16.60;;
23567;SDS011;11962;50.838;4.430;2023-04-08T06:41:56;33.33;;;17.58;;
23567;SDS011;11962;50.838;4.430;2023-04-08T06:44:22;30.98;;;16.17;;
23567;SDS011;11962;50.838;4.430;2023-04-08T06:46:48;33.42;;;17.23;;
23567;SDS011;11962;50.838;4.430;2023-04-08T06:49:13;35.30;;;15.85;;
23567;SDS011;11962;50.838;4.430;2023-04-08T06:51:39;29.40;;;16.77;;
23567;SDS011;11962;50.838;4.430;2023-04-08T06:54:05;38.08;;;16.75;;
23567;SDS011;11962;50.838;4.430;2023-04-08T06:56:31;32.60;;;16.02;;
23567;SDS011;11962;50.838;4.430;2023-04-08T06:58:57;28.35;;;15.75;;
23567;SDS011;11962;50.838;4.430;2023-04-08T07:01:23;31.05;;;16.75;;
23567;SDS011;11962;50.838;4.430;2023-04-08T07:03:49;32.00;;;16.05;;
23567;SDS011;11962;50.838;4.430;2023-04-08T07:06:15;32.33;;;15.82;;
23567;SDS011;11962;50.838;4.430;2023-04-08T07:08:41;31.25;;;16.15;;
23567;SDS011;11962;50.838;4.430;2023-04-08T07:11:06;25.92;;;15.63;;
23567;SDS011;11962;50.838;4.430;2023-04-08T07:13:32;32.30;;;15.80;;
23567;SDS011;11962;50.838;4.430;2023-04-08T07:15:58;28.25;;;15.00;;
23567;SDS011;11962;50.838;4.430;2023-04-08T07:18:24;30.17;;;15.02;;
23567;SDS011;11962;50.838;4.430;2023-04-08T07:20:53;26.17;;;13.77;;
23567;SDS011;11962;50.838;4.430;2023-04-08T07:25:45;24.55;;;12.55;;
23567;SDS011;11962;50.838;4.430;2023-04-08T07:28:11;21.75;;;12.80;;
23567;SDS011;11962;50.838;4.430;2023-04-08T07:30:37;23.27;;;13.15;;
23567;SDS011;11962;50.838;4.430;2023-04-08T07:33:03;18.23;;;11.32;;
23567;SDS011;11962;50.838;4.430;2023-04-08T07:35:29;22.17;;;11.63;;
23567;SDS011;11962;50.838;4.430;2023-04-08T07:37:56;22.30;;;11.52;;
23567;SDS011;11962;50.838;4.430;2023-04-08T07:40:22;18.02;;;11.35;;
23567;SDS011;11962;50.838;4.430;2023-04-08T07:42:48;17.23;;;11.05;;
23567;SDS011;11962;50.838;4.430;2023-04-08T07:45:14;21.08;;;10.88;;
23567;SDS011;11962;50.838;4.430;2023-04-08T07:47:39;24.25;;;11.35;;
23567;SDS011;11962;50.838;4.430;2023-04-08T07:50:05;19.17;;;10.82;;
23567;SDS011;11962;50.838;4.430;2023-04-08T07:52:32;19.50;;;10.55;;
23567;SDS011;11962;50.838;4.430;2023-04-08T07:54:58;16.30;;;9.88;;
23567;SDS011;11962;50.838;4.430;2023-04-08T07:57:24;21.55;;;11.20;;
23567;SDS011;11962;50.838;4.430;2023-04-08T07:59:50;19.23;;;11.55;;
23567;SDS011;11962;50.838;4.430;2023-04-08T08:02:16;16.27;;;10.45;;
23567;SDS011;11962;50.838;4.430;2023-04-08T08:04:42;17.40;;;10.40;;
23567;SDS011;11962;50.838;4.430;2023-04-08T08:07:08;18.85;;;11.18;;
23567;SDS011;11962;50.838;4.430;2023-04-08T08:09:33;15.90;;;10.57;;
23567;SDS011;11962;50.838;4.430;2023-04-08T08:11:59;19.05;;;10.73;;
23567;SDS011;11962;50.838;4.430;2023-04-08T08:14:25;19.90;;;11.85;;
23567;SDS011;11962;50.838;4.430;2023-04-08T08:16:54;19.52;;;11.05;;
23567;SDS011;11962;50.838;4.430;2023-04-08T08:19:20;18.75;;;11.57;;
23567;SDS011;11962;50.838;4.430;2023-04-08T08:21:46;18.83;;;11.25;;
23567;SDS011;11962;50.838;4.430;2023-04-08T08:24:12;24.00;;;12.15;;
23567;SDS011;11962;50.838;4.430;2023-04-08T08:26:38;22.02;;;10.88;;
23567;SDS011;11962;50.838;4.430;2023-04-08T08:29:04;20.00;;;10.40;;
23567;SDS011;11962;50.838;4.430;2023-04-08T08:31:32;21.42;;;11.55;;
23567;SDS011;11962;50.838;4.430;2023-04-08T08:33:58;21.50;;;11.02;;
23567;SDS011;11962;50.838;4.430;2023-04-08T08:36:24;17.60;;;11.55;;
23567;SDS011;11962;50.838;4.430;2023-04-08T08:38:51;19.23;;;11.27;;
23567;SDS011;11962;50.838;4.430;2023-04-08T08:41:18;15.43;;;10.25;;
23567;SDS011;11962;50.838;4.430;2023-04-08T08:43:44;25.17;;;11.50;;
23567;SDS011;11962;50.838;4.430;2023-04-08T08:46:12;20.80;;;11.05;;
23567;SDS011;11962;50.838;4.430;2023-04-08T08:48:41;15.40;;;11.05;;
23567;SDS011;11962;50.838;4.430;2023-04-08T08:51:08;18.83;;;11.65;;
23567;SDS011;11962;50.838;4.430;2023-04-08T08:53:35;15.27;;;10.32;;
23567;SDS011;11962;50.838;4.430;2023-04-08T08:56:01;18.55;;;10.18;;
23567;SDS011;11962;50.838;4.430;2023-04-08T08:58:27;12.57;;;8.60;;
23567;SDS011;11962;50.838;4.430;2023-04-08T09:00:53;16.70;;;9.90;;
23567;SDS011;11962;50.838;4.430;2023-04-08T09:03:20;16.65;;;9.15;;
23567;SDS011;11962;50.838;4.430;2023-04-08T09:08:25;17.42;;;10.85;;
23567;SDS011;11962;50.838;4.430;2023-04-08T09:11:09;17.15;;;10.90;;
23567;SDS011;11962;50.838;4.430;2023-04-08T09:13:42;19.58;;;10.73;;
23567;SDS011;11962;50.838;4.430;2023-04-08T09:16:10;20.40;;;11.70;;
23567;SDS011;11962;50.838;4.430;2023-04-08T09:18:38;22.67;;;12.07;;
23567;SDS011;11962;50.838;4.430;2023-04-08T09:21:07;13.30;;;9.10;;
23567;SDS011;11962;50.838;4.430;2023-04-08T09:26:06;13.15;;;7.28;;
23567;SDS011;11962;50.838;4.430;2023-04-08T09:28:40;10.30;;;7.57;;
23567;SDS011;11962;50.838;4.430;2023-04-08T09:31:23;13.15;;;8.27;;
23567;SDS011;11962;50.838;4.430;2023-04-08T09:33:52;18.58;;;10.00;;
23567;SDS011;11962;50.838;4.430;2023-04-08T09:36:19;16.25;;;9.77;;
23567;SDS011;11962;50.838;4.430;2023-04-08T09:38:45;21.83;;;10.10;;
23567;SDS011;11962;50.838;4.430;2023-04-08T09:41:14;16.92;;;10.05;;
23567;SDS011;11962;50.838;4.430;2023-04-08T09:43:47;16.98;;;9.90;;
23567;SDS011;11962;50.838;4.430;2023-04-08T09:49:10;17.55;;;10.23;;
23567;SDS011;11962;50.838;4.430;2023-04-08T09:54:25;13.23;;;9.10;;
23567;SDS011;11962;50.838;4.430;2023-04-08T09:57:08;16.73;;;9.73;;
23567;SDS011;11962;50.838;4.430;2023-04-08T09:59:37;14.52;;;10.32;;
23567;SDS011;11962;50.838;4.430;2023-04-08T10:02:13;16.95;;;10.48;;
23567;SDS011;11962;50.838;4.430;2023-04-08T10:04:43;14.20;;;9.50;;
23567;SDS011;11962;50.838;4.430;2023-04-08T10:07:13;17.63;;;10.77;;
23567;SDS011;11962;50.838;4.430;2023-04-08T10:09:39;16.13;;;10.52;;
23567;SDS011;11962;50.838;4.430;2023-04-08T10:12:07;13.77;;;10.30;;
23567;SDS011;11962;50.838;4.430;2023-04-08T10:14:33;16.77;;;10.50;;
23567;SDS011;11962;50.838;4.430;2023-04-08T10:20:00;13.30;;;9.55;;
23567;SDS011;11962;50.838;4.430;2023-04-08T10:25:26;13.35;;;8.95;;
23567;SDS011;11962;50.838;4.430;2023-04-08T10:27:43;14.63;;;9.65;;
23567;SDS011;11962;50.838;4.430;2023-04-08T10:35:30;11.95;;;7.40;;
23567;SDS011;11962;50.838;4.430;2023-04-08T10:37:58;10.05;;;7.43;;
23567;SDS011;11962;50.838;4.430;2023-04-08T10:40:25;13.90;;;9.73;;
23567;SDS011;11962;50.838;4.430;2023-04-08T10:42:57;15.90;;;8.90;;
23567;SDS011;11962;50.838;4.430;2023-04-08T10:45:23;16.63;;;9.13;;
23567;SDS011;11962;50.838;4.430;2023-04-08T10:47:50;16.45;;;9.02;;
23567;SDS011;11962;50.838;4.430;2023-04-08T10:50:16;13.35;;;8.65;;
23567;SDS011;11962;50.838;4.430;2023-04-08T10:52:50;15.20;;;8.52;;
23567;SDS011;11962;50.838;4.430;2023-04-08T10:55:24;11.38;;;7.70;;
23567;SDS011;11962;50.838;4.430;2023-04-08T10:57:51;13.25;;;8.68;;
23567;SDS011;11962;50.838;4.430;2023-04-08T11:00:18;12.88;;;9.38;;
23567;SDS011;11962;50.838;4.430;2023-04-08T11:05:24;17.27;;;9.73;;
23567;SDS011;11962;50.838;4.430;2023-04-08T11:07:51;16.73;;;10.35;;
23567;SDS011;11962;50.838;4.430;2023-04-08T11:10:17;19.17;;;11.90;;
23567;SDS011;11962;50.838;4.430;2023-04-08T11:12:43;19.48;;;10.48;;
23567;SDS011;11962;50.838;4.430;2023-04-08T11:15:08;15.88;;;9.98;;
23567;SDS011;11962;50.838;4.430;2023-04-08T11:17:35;15.80;;;9.35;;
23567;SDS011;11962;50.838;4.430;2023-04-08T11:20:01;13.55;;;9.27;;
23567;SDS011;11962;50.838;4.430;2023-04-08T11:24:57;16.17;;;8.50;;
23567;SDS011;11962;50.838;4.430;2023-04-08T11:27:24;12.48;;;7.90;;
23567;SDS011;11962;50.838;4.430;2023-04-08T11:29:50;14.38;;;8.07;;
23567;SDS011;11962;50.838;4.430;2023-04-08T11:32:23;11.57;;;7.70;;
23567;SDS011;11962;50.838;4.430;2023-04-08T11:34:49;13.88;;;7.90;;
23567;SDS011;11962;50.838;4.430;2023-04-08T11:37:15;12.93;;;8.60;;
23567;SDS011;11962;50.838;4.430;2023-04-08T11:39:41;16.08;;;9.15;;
23567;SDS011;11962;50.838;4.430;2023-04-08T11:42:07;16.33;;;9.32;;
23567;SDS011;11962;50.838;4.430;2023-04-08T11:44:33;13.43;;;9.25;;
23567;SDS011;11962;50.838;4.430;2023-04-08T11:47:00;19.40;;;10.35;;
23567;SDS011;11962;50.838;4.430;2023-04-08T11:49:26;14.65;;;10.10;;
23567;SDS011;11962;50.838;4.430;2023-04-08T11:51:53;15.88;;;10.70;;
23567;SDS011;11962;50.838;4.430;2023-04-08T11:54:30;14.45;;;10.45;;
23567;SDS011;11962;50.838;4.430;2023-04-08T11:56:56;15.07;;;10.13;;
23567;SDS011;11962;50.838;4.430;2023-04-08T11:59:26;18.63;;;12.70;;
23567;SDS011;11962;50.838;4.430;2023-04-08T12:01:52;15.20;;;11.10;;
23567;SDS011;11962;50.838;4.430;2023-04-08T12:04:17;16.20;;;11.32;;
23567;SDS011;11962;50.838;4.430;2023-04-08T12:06:43;15.45;;;11.43;;
23567;SDS011;11962;50.838;4.430;2023-04-08T12:09:11;17.53;;;11.53;;
23567;SDS011;11962;50.838;4.430;2023-04-08T12:11:37;16.50;;;10.30;;
23567;SDS011;11962;50.838;4.430;2023-04-08T12:14:03;18.77;;;11.68;;
23567;SDS011;11962;50.838;4.430;2023-04-08T12:16:29;18.98;;;11.68;;
23567;SDS011;11962;50.838;4.430;2023-04-08T12:18:55;16.35;;;11.35;;
23567;SDS011;11962;50.838;4.430;2023-04-08T12:21:21;16.77;;;11.50;;
23567;SDS011;11962;50.838;4.430;2023-04-08T12:23:46;15.60;;;11.38;;
23567;SDS011;11962;50.838;4.430;2023-04-08T12:26:12;18.38;;;11.80;;
23567;SDS011;11962;50.838;4.430;2023-04-08T12:28:38;14.50;;;10.88;;
23567;SDS011;11962;50.838;4.430;2023-04-08T12:31:04;18.08;;;12.43;;
23567;SDS011;11962;50.838;4.430;2023-04-08T12:33:30;17.85;;;12.18;;
23567;SDS011;11962;50.838;4.430;2023-04-08T12:35:56;17.95;;;12.10;;
23567;SDS011;11962;50.838;4.430;2023-04-08T12:38:23;17.95;;;11.90;;
23567;SDS011;11962;50.838;4.430;2023-04-08T12:40:51;16.65;;;11.73;;
23567;SDS011;11962;50.838;4.430;2023-04-08T12:43:17;21.17;;;12.40;;
23567;SDS011;11962;50.838;4.430;2023-04-08T12:45:43;15.80;;;11.35;;
23567;SDS011;11962;50.838;4.430;2023-04-08T12:48:09;17.17;;;11.50;;
23567;SDS011;11962;50.838;4.430;2023-04-08T12:50:34;16.92;;;11.80;;
23567;SDS011;11962;50.838;4.430;2023-04-08T12:53:00;16.67;;;11.40;;
23567;SDS011;11962;50.838;4.430;2023-04-08T12:55:26;17.33;;;11.70;;
23567;SDS011;11962;50.838;4.430;2023-04-08T12:57:52;14.95;;;10.88;;
23567;SDS011;11962;50.838;4.430;2023-04-08T13:00:18;15.38;;;10.73;;
23567;SDS011;11962;50.838;4.430;2023-04-08T13:02:44;14.70;;;10.57;;
23567;SDS011;11962;50.838;4.430;2023-04-08T13:05:10;16.13;;;10.13;;
23567;SDS011;11962;50.838;4.430;2023-04-08T13:07:36;13.20;;;10.07;;
23567;SDS011;11962;50.838;4.430;2023-04-08T13:10:02;16.55;;;10.85;;
23567;SDS011;11962;50.838;4.430;2023-04-08T13:12:28;18.30;;;11.10;;
23567;SDS011;11962;50.838;4.430;2023-04-08T13:14:54;14.27;;;10.57;;
23567;SDS011;11962;50.838;4.430;2023-04-08T13:17:20;15.18;;;11.10;;
23567;SDS011;11962;50.838;4.430;2023-04-08T13:19:45;15.23;;;10.93;;
23567;SDS011;11962;50.838;4.430;2023-04-08T13:22:13;16.77;;;10.73;;
23567;SDS011;11962;50.838;4.430;2023-04-08T13:24:39;15.48;;;10.13;;
23567;SDS011;11962;50.838;4.430;2023-04-08T13:27:05;12.65;;;9.93;;
23567;SDS011;11962;50.838;4.430;2023-04-08T13:29:31;14.15;;;10.13;;
23567;SDS011;11962;50.838;4.430;2023-04-08T13:31:56;13.45;;;10.10;;
23567;SDS011;11962;50.838;4.430;2023-04-08T13:34:22;16.33;;;10.70;;
23567;SDS011;11962;50.838;4.430;2023-04-08T13:36:48;14.90;;;10.05;;
23567;SDS011;11962;50.838;4.430;2023-04-08T13:39:14;14.73;;;10.65;;
23567;SDS011;11962;50.838;4.430;2023-04-08T13:41:40;13.18;;;9.88;;
23567;SDS011;11962;50.838;4.430;2023-04-08T13:44:05;13.27;;;10.18;;
23567;SDS011;11962;50.838;4.430;2023-04-08T13:46:31;12.77;;;9.90;;
23567;SDS011;11962;50.838;4.430;2023-04-08T13:48:57;18.88;;;10.82;;
23567;SDS011;11962;50.838;4.430;2023-04-08T13:51:22;15.68;;;10.73;;
23567;SDS011;11962;50.838;4.430;2023-04-08T13:53:48;14.60;;;10.30;;
23567;SDS011;11962;50.838;4.430;2023-04-08T13:56:14;15.57;;;10.43;;
23567;SDS011;11962;50.838;4.430;2023-04-08T13:58:40;18.00;;;11.15;;
23567;SDS011;11962;50.838;4.430;2023-04-08T14:01:05;17.15;;;11.43;;
23567;SDS011;11962;50.838;4.430;2023-04-08T14:03:31;16.30;;;10.90;;
23567;SDS011;11962;50.838;4.430;2023-04-08T14:05:57;16.40;;;10.93;;
23567;SDS011;11962;50.838;4.430;2023-04-08T14:08:22;17.52;;;10.50;;
23567;SDS011;11962;50.838;4.430;2023-04-08T14:10:54;18.25;;;10.93;;
23567;SDS011;11962;50.838;4.430;2023-04-08T14:13:21;16.05;;;11.63;;
23567;SDS011;11962;50.838;4.430;2023-04-08T14:15:47;19.60;;;11.80;;
23567;SDS011;11962;50.838;4.430;2023-04-08T14:18:13;18.58;;;11.20;;
23567;SDS011;11962;50.838;4.430;2023-04-08T14:20:42;16.35;;;10.50;;
23567;SDS011;11962;50.838;4.430;2023-04-08T14:23:07;16.48;;;10.88;;
23567;SDS011;11962;50.838;4.430;2023-04-08T14:25:33;17.38;;;11.23;;
23567;SDS011;11962;50.838;4.430;2023-04-08T14:27:59;16.45;;;10.82;;
23567;SDS011;11962;50.838;4.430;2023-04-08T14:30:25;16.60;;;11.02;;
23567;SDS011;11962;50.838;4.430;2023-04-08T14:32:51;16.58;;;11.88;;
23567;SDS011;11962;50.838;4.430;2023-04-08T14:35:17;19.85;;;11.82;;
23567;SDS011;11962;50.838;4.430;2023-04-08T14:37:43;16.30;;;11.88;;
23567;SDS011;11962;50.838;4.430;2023-04-08T14:40:09;18.65;;;12.80;;
23567;SDS011;11962;50.838;4.430;2023-04-08T14:42:35;19.17;;;12.20;;
23567;SDS011;11962;50.838;4.430;2023-04-08T14:45:01;18.17;;;13.23;;
23567;SDS011;11962;50.838;4.430;2023-04-08T14:47:27;17.42;;;11.48;;
23567;SDS011;11962;50.838;4.430;2023-04-08T14:49:53;21.50;;;13.20;;
23567;SDS011;11962;50.838;4.430;2023-04-08T14:52:19;17.88;;;13.40;;
23567;SDS011;11962;50.838;4.430;2023-04-08T14:54:44;21.65;;;14.77;;
23567;SDS011;11962;50.838;4.430;2023-04-08T14:57:11;20.33;;;14.23;;
23567;SDS011;11962;50.838;4.430;2023-04-08T14:59:37;20.95;;;13.45;;
23567;SDS011;11962;50.838;4.430;2023-04-08T15:02:03;20.55;;;13.57;;